createdAt,value
2023-02-02T00:04:33.759Z,15.10
2023-02-02T00:09:35.852Z,14.15
2023-02-02T00:14:37.836Z,14.82
2023-02-02T00:19:39.923Z,14.63
2023-02-02T00:24:41.857Z,12.27
2023-02-02T00:29:43.856Z,13.60
2023-02-02T00:34:46.879Z,12.88
2023-02-02T00:39:48.917Z,12.88
2023-02-02T00:45:09.281Z,11.68
2023-02-02T00:50:13.567Z,12.70
2023-02-02T00:55:16.651Z,11.63
2023-02-02T01:00:23.806Z,12.40
2023-02-02T01:05:25.918Z,11.43
2023-02-02T01:10:28.582Z,9.10
2023-02-02T01:15:30.791Z,11.32
2023-02-02T01:20:32.852Z,11.30
2023-02-02T01:25:38.593Z,11.68
2023-02-02T01:30:40.838Z,10.75
2023-02-02T01:35:48.392Z,10.60
2023-02-02T01:40:56.904Z,9.90
2023-02-02T01:45:59.393Z,10.50
2023-02-02T01:51:07.057Z,9.57
2023-02-02T01:56:12.733Z,9.02
2023-02-02T02:01:15.063Z,9.05
2023-02-02T02:06:19.546Z,9.05
2023-02-02T02:11:22.940Z,10.48
2023-02-02T02:16:57.296Z,10.32
2023-02-02T02:22:21.254Z,10.90
2023-02-02T02:27:23.781Z,11.15
2023-02-02T02:32:55.051Z,10.05
2023-02-02T02:38:15.585Z,9.85
2023-02-02T02:43:27.900Z,11.30
2023-02-02T02:48:30.635Z,9.52
2023-02-02T02:53:33.716Z,9.25
2023-02-02T02:58:59.156Z,10.20
2023-02-02T03:04:08.339Z,11.00
2023-02-02T03:09:19.716Z,10.27
2023-02-02T03:14:21.909Z,9.82
2023-02-02T03:19:24.081Z,7.07
2023-02-02T03:24:26.120Z,10.30
2023-02-02T03:29:29.120Z,9.02
2023-02-02T03:34:31.089Z,9.52
2023-02-02T03:39:33.194Z,9.68
2023-02-02T03:44:35.265Z,9.32
2023-02-02T03:49:37.288Z,7.90
2023-02-02T03:54:39.280Z,10.02
2023-02-02T03:59:41.232Z,8.90
2023-02-02T04:04:43.251Z,9.90
2023-02-02T04:09:45.216Z,9.93
2023-02-02T04:14:47.186Z,10.00
2023-02-02T04:19:49.307Z,7.72
2023-02-02T04:24:51.420Z,11.05
2023-02-02T04:29:53.368Z,11.32
2023-02-02T04:34:55.368Z,12.68
2023-02-02T04:39:57.449Z,14.05
2023-02-02T04:44:59.509Z,11.70
2023-02-02T04:50:01.473Z,14.50
2023-02-02T04:55:04.042Z,13.52
2023-02-02T05:00:07.153Z,13.27
2023-02-02T05:05:12.174Z,11.63
2023-02-02T05:10:14.272Z,13.90
2023-02-02T05:15:16.479Z,12.48
2023-02-02T05:20:19.574Z,12.82
2023-02-02T05:25:21.715Z,13.50
2023-02-02T05:30:23.765Z,13.18
2023-02-02T05:35:26.243Z,8.90
2023-02-02T05:40:28.620Z,15.45
2023-02-02T05:45:30.731Z,13.07
2023-02-02T05:50:32.833Z,15.60
2023-02-02T05:55:39.299Z,14.88
2023-02-02T06:00:41.385Z,15.52
2023-02-02T06:05:43.542Z,14.20
2023-02-02T06:10:45.557Z,14.80
2023-02-02T06:15:47.727Z,14.38
2023-02-02T06:20:55.883Z,13.95
2023-02-02T06:25:58.125Z,13.55
2023-02-02T06:31:08.005Z,13.98
2023-02-02T06:36:10.160Z,11.60
2023-02-02T06:41:12.153Z,14.13
2023-02-02T06:46:14.932Z,12.85
2023-02-02T06:51:17.157Z,15.27
2023-02-02T06:56:19.251Z,14.25
2023-02-02T07:01:21.499Z,13.75
2023-02-02T07:06:26.696Z,15.90
2023-02-02T07:11:28.752Z,14.75
2023-02-02T07:16:31.996Z,14.07
2023-02-02T07:21:36.417Z,15.40
2023-02-02T07:26:39.781Z,14.20
2023-02-02T07:31:42.247Z,14.02
2023-02-02T07:36:44.295Z,15.07
2023-02-02T07:41:46.299Z,14.77
2023-02-02T07:46:59.022Z,13.18
2023-02-02T07:52:01.054Z,12.65
2023-02-02T07:57:03.078Z,13.98
2023-02-02T08:02:05.316Z,14.00
2023-02-02T08:07:07.411Z,13.40
2023-02-02T08:12:09.464Z,13.90
2023-02-02T08:17:11.548Z,12.88
2023-02-02T08:22:13.615Z,13.30
2023-02-02T08:27:16.919Z,12.82
2023-02-02T08:32:18.940Z,13.38
2023-02-02T08:37:21.061Z,10.40
2023-02-02T08:42:23.094Z,14.57
2023-02-02T08:47:25.266Z,14.20
2023-02-02T08:52:27.453Z,13.25
2023-02-02T08:57:30.551Z,14.15
2023-02-02T09:02:33.117Z,13.50
2023-02-02T09:07:35.326Z,14.38
2023-02-02T09:12:37.354Z,11.30
2023-02-02T09:17:39.543Z,13.40
2023-02-02T09:22:42.151Z,11.23
2023-02-02T09:27:44.356Z,13.88
2023-02-02T09:32:49.491Z,13.98
2023-02-02T09:37:51.613Z,12.40
2023-02-02T09:43:14.676Z,14.90
2023-02-02T09:48:34.789Z,13.68
2023-02-02T09:53:46.079Z,14.32
2023-02-02T09:59:10.097Z,13.38
2023-02-02T10:04:22.047Z,14.27
2023-02-02T10:09:40.592Z,14.68
2023-02-02T10:14:50.398Z,12.73
2023-02-02T10:19:57.227Z,10.50
2023-02-02T10:24:59.361Z,13.60
2023-02-02T10:30:03.980Z,13.80
2023-02-02T10:35:48.045Z,12.60
2023-02-02T10:41:06.973Z,13.48
2023-02-02T10:46:16.150Z,11.57
2023-02-02T10:51:28.059Z,10.98
2023-02-02T11:01:39.670Z,12.45
2023-02-02T11:06:56.925Z,14.65
2023-02-02T11:12:07.141Z,14.40
2023-02-02T11:17:21.701Z,15.00
2023-02-02T11:22:36.855Z,14.07
2023-02-02T11:27:41.587Z,13.40
2023-02-02T11:32:48.924Z,12.07
2023-02-02T11:38:01.855Z,12.48
2023-02-02T11:43:18.977Z,14.57
2023-02-02T11:48:24.402Z,13.30
2023-02-02T11:53:42.841Z,12.80
2023-02-02T11:58:49.934Z,14.07
2023-02-02T12:03:55.298Z,12.55
2023-02-02T12:09:01.470Z,14.25
2023-02-02T12:14:26.787Z,13.50
2023-02-02T12:19:56.481Z,12.93
2023-02-02T12:25:36.777Z,13.43
2023-02-02T12:30:44.928Z,14.13
2023-02-02T12:36:08.209Z,12.20
2023-02-02T12:41:31.115Z,11.95
2023-02-02T12:46:57.140Z,12.68
2023-02-02T12:52:40.912Z,12.25
2023-02-02T12:58:06.405Z,11.52
2023-02-02T13:03:31.272Z,13.55
2023-02-02T13:09:01.702Z,12.30
2023-02-02T13:14:09.613Z,10.45
2023-02-02T13:19:21.191Z,15.05
2023-02-02T13:24:30.770Z,12.68
2023-02-02T13:29:48.403Z,14.35
2023-02-02T13:35:17.557Z,14.35
2023-02-02T13:40:32.236Z,14.35
2023-02-02T13:45:34.333Z,14.88
2023-02-02T13:50:53.805Z,13.40
2023-02-02T13:56:11.539Z,13.90
2023-02-02T14:01:14.708Z,14.00
2023-02-02T14:06:21.948Z,12.50
2023-02-02T14:11:42.570Z,11.38
2023-02-02T14:16:49.210Z,15.50
2023-02-02T14:21:58.910Z,15.80
2023-02-02T14:27:10.398Z,16.15
2023-02-02T14:32:30.769Z,17.20
2023-02-02T14:37:50.319Z,15.75
2023-02-02T14:43:38.668Z,17.70
2023-02-02T14:48:47.651Z,15.15
2023-02-02T14:54:08.758Z,13.20
2023-02-02T14:59:20.385Z,16.30
2023-02-02T15:04:22.347Z,17.88
2023-02-02T15:09:26.687Z,14.88
2023-02-02T15:14:33.257Z,16.83
2023-02-02T15:19:41.459Z,16.42
2023-02-02T15:24:46.484Z,16.52
2023-02-02T15:29:55.056Z,17.80
2023-02-02T15:35:05.570Z,12.02
2023-02-02T15:40:16.480Z,17.08
2023-02-02T15:45:49.815Z,18.00
2023-02-02T15:50:56.706Z,17.52
2023-02-02T15:55:58.759Z,16.67
2023-02-02T16:01:06.552Z,17.60
2023-02-02T16:06:09.020Z,15.57
2023-02-02T16:11:20.759Z,11.70
2023-02-02T16:16:29.153Z,17.95
2023-02-02T16:21:33.201Z,18.50
2023-02-02T16:26:36.208Z,17.98
2023-02-02T16:31:38.434Z,16.08
2023-02-02T16:36:40.464Z,17.00
2023-02-02T16:41:42.541Z,15.48
2023-02-02T16:46:48.736Z,17.85
2023-02-02T16:52:14.643Z,17.42
2023-02-02T16:57:24.596Z,16.35
2023-02-02T17:02:46.255Z,18.25
2023-02-02T17:07:58.372Z,16.40
2023-02-02T17:13:01.847Z,16.27
2023-02-02T17:18:05.387Z,12.98
2023-02-02T17:23:09.986Z,18.70
2023-02-02T17:28:19.139Z,17.23
2023-02-02T17:33:21.378Z,18.33
2023-02-02T17:38:25.090Z,17.90
2023-02-02T17:43:27.695Z,18.75
2023-02-02T17:48:29.736Z,18.98
2023-02-02T17:53:33.512Z,16.45
2023-02-02T17:58:35.606Z,19.40
2023-02-02T18:03:39.678Z,18.95
2023-02-02T18:08:41.704Z,18.08
2023-02-02T18:13:44.423Z,17.17
2023-02-02T18:18:46.423Z,17.42
2023-02-02T18:23:49.276Z,16.60
2023-02-02T18:28:51.452Z,19.30
2023-02-02T18:33:54.520Z,14.02
2023-02-02T18:38:58.116Z,18.15
2023-02-02T18:44:00.174Z,18.02
2023-02-02T18:49:02.183Z,19.40
2023-02-02T18:54:04.275Z,18.70
2023-02-02T18:59:07.332Z,19.80
2023-02-02T19:04:09.483Z,19.33
2023-02-02T19:09:17.420Z,19.50
2023-02-02T19:14:24.813Z,16.63
2023-02-02T19:19:30.638Z,15.55
2023-02-02T19:24:39.198Z,21.42
2023-02-02T19:29:41.298Z,18.13
2023-02-02T19:34:43.323Z,18.00
2023-02-02T19:39:47.249Z,18.20
2023-02-02T19:44:50.043Z,19.65
2023-02-02T19:50:20.907Z,20.35
2023-02-02T19:55:28.472Z,18.67
2023-02-02T20:00:31.601Z,20.58
2023-02-02T20:05:41.836Z,18.27
2023-02-02T20:10:44.582Z,17.13
2023-02-02T20:15:47.908Z,17.02
2023-02-02T20:20:55.667Z,15.85
2023-02-02T20:25:59.514Z,19.45
2023-02-02T20:31:05.200Z,19.65
2023-02-02T20:36:36.818Z,15.18
2023-02-02T20:41:38.783Z,19.38
2023-02-02T20:46:40.800Z,17.88
2023-02-02T20:51:42.936Z,18.80
2023-02-02T20:56:44.913Z,16.33
2023-02-02T21:01:47.687Z,20.35
2023-02-02T21:06:49.956Z,17.08
2023-02-02T21:11:52.362Z,17.63
2023-02-02T21:17:05.383Z,19.17
2023-02-02T21:22:15.827Z,16.23
2023-02-02T21:27:17.867Z,19.98
2023-02-02T21:32:19.894Z,20.33
2023-02-02T21:37:21.949Z,18.60
2023-02-02T21:42:26.904Z,18.92
2023-02-02T21:47:37.262Z,18.63
2023-02-02T21:52:39.286Z,17.80
2023-02-02T21:57:42.325Z,17.40
2023-02-02T22:02:49.019Z,18.92
2023-02-02T22:07:53.507Z,19.92
2023-02-02T22:12:55.832Z,17.23
2023-02-02T22:17:57.792Z,19.48
2023-02-02T22:23:02.126Z,19.83
2023-02-02T22:28:36.663Z,19.15
2023-02-02T22:33:39.052Z,18.65
2023-02-02T22:38:41.016Z,20.00
2023-02-02T22:43:43.011Z,20.02
2023-02-02T22:48:45.022Z,21.23
2023-02-02T22:53:47.356Z,20.83
2023-02-02T22:58:49.336Z,19.98
2023-02-02T23:03:51.342Z,18.58
2023-02-02T23:08:53.309Z,18.92
2023-02-02T23:13:55.263Z,20.63
2023-02-02T23:18:57.366Z,20.38
2023-02-02T23:23:59.334Z,20.75
2023-02-02T23:29:01.427Z,19.95
2023-02-02T23:34:03.392Z,19.48
2023-02-02T23:39:05.522Z,18.58
2023-02-02T23:44:07.525Z,19.35
2023-02-02T23:49:09.675Z,19.10
2023-02-02T23:54:13.631Z,19.92
2023-02-02T23:59:15.663Z,17.33
